Latest Weather Observations for Julia Creek

IDQ60801

Issued at 7:32 am EST Friday 6 May 2016 (issued every 30 minutes, with the page automatically refreshed every 10 minutes)

About weather observations | Map of weather stations | Latest weather observations for QLD | Other Formats
Station Details ID: 029058 Name: JULIA CREEK AIRPORT Lat: -20.67 Lon: 141.72 Height: 122.5 m
Data from the previous 72 hours. | See also: Recent months at Julia Creek
Date/Time
EST
Temp
°C
App
Temp
°C
Dew
Point
Rel
Hum
%
Delta-T
°C
Wind Press
QNH
hPa
Press
MSL
hPa
Rain
since 9 am
mm
Dir
 
Spd
km/h
Gust
km/h
Spd
kts
Gust
kts
06/07:30am 19.6 18.3 9.2 51 5.5 SE 6 7 3 4 1014.0 1013.5 0.0
06/07:00am 18.8 17.2 8.7 52 5.3 SSE 7 9 4 5 1013.6 1013.2 0.0
06/06:30am 18.9 18.6 8.8 52 5.3 CALM 0 0 0 0 1013.4 1013.0 0.0
06/06:00am 19.3 17.8 8.3 49 5.7 S 6 7 3 4 1013.2 1012.8 0.0
06/05:30am 20.5 18.5 8.8 47 6.2 SSE 9 11 5 6 1013.0 1012.6 0.0
06/05:00am 20.7 18.9 9.6 49 6.0 SSE 9 11 5 6 1012.8 1012.4 0.0
06/04:30am 20.7 19.5 10.2 51 5.7 SE 7 7 4 4 1012.6 1012.2 0.0
06/04:00am 21.9 20.4 10.4 48 6.3 SSE 9 13 5 7 1012.4 1012.0 0.0
06/03:30am 21.8 20.9 11.2 51 5.9 SSE 7 11 4 6 1012.4 1012.0 0.0
06/03:00am 20.3 19.4 11.2 56 5.0 S 7 9 4 5 1012.5 1012.1 0.0
06/02:30am 20.4 19.5 11.3 56 5.0 SSE 7 9 4 5 1012.6 1012.2 0.0
06/02:00am 20.6 19.7 11.2 55 5.2 SSE 7 9 4 5 1012.6 1012.2 0.0
06/01:30am 21.6 20.8 11.6 53 5.6 SE 7 9 4 5 1012.9 1012.5 0.0
06/01:00am 22.5 21.4 11.9 51 6.0 SE 9 11 5 6 1013.0 1012.6 0.0
06/12:30am 21.7 20.9 11.7 53 5.6 SE 7 9 4 5 1013.4 1013.0 0.0
06/12:00am 22.6 21.9 12.0 51 6.0 SE 7 9 4 5 1013.5 1013.1 0.0
 
Date/Time
EST
Temp
°C
App
Temp
°C
Dew
Point
Rel
Hum
%
Delta-T
°C
Wind Press
QNH
hPa
Press
MSL
hPa
Rain
since 9 am
mm
Dir
 
Spd
km/h
Gust
km/h
Spd
kts
Gust
kts
05/11:30pm 23.5 22.5 12.2 49 6.5 SSE 9 11 5 6 1013.7 1013.3 0.0
05/11:00pm 24.4 23.1 12.4 47 6.9 SSE 11 15 6 8 1014.0 1013.5 0.0
05/10:30pm 24.5 23.6 12.5 47 6.9 SSE 9 11 5 6 1014.2 1013.7 0.0
05/10:00pm 25.4 24.1 12.6 45 7.4 SSE 11 13 6 7 1014.2 1013.7 0.0
05/09:30pm 26.3 24.8 13.1 44 7.8 SSE 13 15 7 8 1014.0 1013.5 0.0
05/09:00pm 26.4 25.6 13.9 46 7.4 SSE 11 15 6 8 1013.8 1013.4 0.0
05/08:30pm 26.8 26.0 13.9 45 7.7 SSE 11 13 6 7 1013.6 1013.2 0.0
05/08:00pm 27.2 26.7 13.9 44 7.9 SSE 9 11 5 6 1013.2 1012.8 0.0
05/07:30pm 27.3 26.7 13.6 43 8.1 S 9 11 5 6 1012.8 1012.4 0.0
05/07:00pm 28.5 27.9 13.6 40 8.9 S 9 11 5 6 1012.3 1011.9 0.0
05/06:30pm 30.1 30.0 13.8 37 9.8 S 7 11 4 6 1011.9 1011.5 0.0
05/06:00pm 32.1 31.4 14.3 34 10.9 SSE 11 17 6 9 1011.7 1011.3 0.0
05/05:30pm 33.4 33.3 14.0 31 11.9 SSW 7 9 4 5 1011.6 1011.2 0.0
05/05:00pm 34.0 35.1 14.5 31 12.1 SW 2 7 1 4 1011.3 1010.9 0.0
05/04:30pm 34.2 33.6 14.7 31 12.1 SSW 11 22 6 12 1011.3 1010.9 0.0
05/04:00pm 34.5 35.9 14.4 30 12.5 CALM 0 4 0 2 1011.2 1010.8 0.0
05/03:30pm 34.1 34.4 14.6 31 12.1 WSW 6 9 3 5 1011.4 1011.0 0.0
05/03:00pm 34.1 34.6 14.1 30 12.3 E 4 7 2 4 1011.7 1011.3 0.0
05/02:30pm 34.7 35.2 14.0 28 12.7 N 4 11 2 6 1011.9 1011.5 0.0
05/02:00pm 34.2 35.1 15.1 31 11.9 NNW 4 11 2 6 1012.2 1011.8 0.0
05/01:30pm 33.9 35.4 15.8 33 11.4 ENE 2 7 1 4 1012.6 1012.2 0.0
05/01:00pm 32.9 33.5 15.4 35 10.9 NNE 6 17 3 9 1013.3 1012.9 0.0
05/12:30pm 32.7 33.3 15.2 34 10.9 NNE 6 17 3 9 1013.8 1013.4 0.0
05/12:00pm 32.2 32.8 15.2 35 10.6 NNE 6 15 3 8 1014.6 1014.1 0.0
05/11:30am 31.4 31.5 14.5 35 10.4 NE 7 17 4 9 1015.4 1014.9 0.0
05/11:00am 30.4 28.6 10.9 30 11.2 ESE 11 17 6 9 1016.1 1015.6 0.0
05/10:30am 30.0 27.4 9.5 28 11.6 ESE 13 20 7 11 1016.4 1015.9 0.0
05/10:00am 28.1 24.1 5.0 23 11.9 ESE 15 22 8 12 1016.8 1016.3 0.0
05/09:30am 26.2 21.3 4.1 24 11.1 ESE 19 24 10 13 1016.9 1016.4 0.0
05/09:00am 24.6 19.4 2.7 24 10.6 ESE 19 24 10 13 1016.8 1016.3 0.0
05/08:30am 22.8 17.7 2.8 27 9.6 SE 19 24 10 13 1016.5 1016.0 0.0
05/08:00am 21.3 17.0 3.0 30 8.7 SE 15 24 8 13 1016.2 1015.7 0.0
05/07:30am 18.9 15.4 3.5 36 7.3 SE 11 15 6 8 1015.9 1015.4 0.0
05/07:00am 17.9 14.0 3.4 38 6.8 SSE 13 17 7 9 1015.6 1015.1 0.0
05/06:30am 17.5 14.0 3.4 39 6.6 SSE 11 15 6 8 1015.4 1014.9 0.0
05/06:00am 16.8 13.4 4.2 43 5.9 SSE 11 13 6 7 1015.2 1014.7 0.0
05/05:30am 16.2 13.0 4.9 47 5.4 S 11 13 6 7 1014.9 1014.4 0.0
05/05:00am 16.0 13.5 4.7 47 5.3 SSE 7 9 4 5 1014.8 1014.3 0.0
05/04:30am 16.9 14.4 4.6 44 5.9 SE 7 9 4 5 1014.7 1014.2 0.0
05/04:00am 17.5 14.8 3.8 40 6.4 SE 7 9 4 5 1014.7 1014.2 0.0
05/03:30am 18.8 16.0 3.0 35 7.4 SE 7 9 4 5 1014.9 1014.4 0.0
05/03:00am 20.0 16.8 2.8 32 8.1 SE 9 13 5 7 1014.9 1014.4 0.0
05/02:30am 21.0 16.9 2.3 29 8.8 SE 13 19 7 10 1014.8 1014.3 0.0
05/02:00am 21.1 17.5 2.9 30 8.6 SE 11 17 6 9 1014.7 1014.2 0.0
05/01:30am 20.1 16.6 3.3 33 8.0 SE 11 13 6 7 1014.9 1014.4 0.0
05/01:00am 20.6 16.7 3.3 32 8.2 SE 13 15 7 8 1015.1 1014.6 0.0
05/12:30am 20.5 16.7 4.1 34 7.9 SSE 13 15 7 8 1015.2 1014.7 0.0
05/12:00am 20.2 16.6 5.1 37 7.4 SSE 13 15 7 8 1015.3 1014.8 0.0
 
Date/Time
EST
Temp
°C
App
Temp
°C
Dew
Point
Rel
Hum
%
Delta-T
°C
Wind Press
QNH
hPa
Press
MSL
hPa
Rain
since 9 am
mm
Dir
 
Spd
km/h
Gust
km/h
Spd
kts
Gust
kts
04/11:30pm 19.8 16.8 5.8 40 7.0 SSE 11 13 6 7 1015.5 1015.0 0.0
04/11:00pm 20.0 17.1 6.4 41 6.8 SSE 11 13 6 7 1015.7 1015.2 0.0
04/10:30pm 20.3 17.9 7.0 42 6.8 SSE 9 11 5 6 1015.8 1015.3 0.0
04/10:00pm 20.9 18.5 7.2 41 7.0 SSE 9 11 5 6 1015.7 1015.2 0.0
04/09:30pm 22.0 19.6 7.0 38 7.7 SSE 9 11 5 6 1015.6 1015.1 0.0
04/09:00pm 22.8 20.4 7.0 36 8.2 SSE 9 11 5 6 1015.4 1014.9 0.0
04/08:30pm 23.9 20.8 7.1 34 8.8 SSE 13 15 7 8 1015.1 1014.6 0.0
04/08:00pm 24.4 21.4 7.5 34 8.9 SSE 13 17 7 9 1014.7 1014.2 0.0
04/07:30pm 25.1 21.9 8.6 35 8.9 SSE 15 19 8 10 1014.4 1013.9 0.0
04/07:00pm 25.4 23.2 9.3 36 8.8 SSE 11 15 6 8 1014.2 1013.7 0.0
04/06:30pm 26.3 24.4 9.2 34 9.4 SSE 9 13 5 7 1014.1 1013.6 0.0
04/06:00pm 27.9 25.3 9.2 31 10.4 SSE 13 17 7 9 1013.8 1013.4 0.0
04/05:30pm 29.1 26.2 9.8 30 10.9 SSE 15 22 8 12 1013.7 1013.3 0.0
04/05:00pm 29.4 26.7 10.5 31 10.8 SSE 15 20 8 11 1013.5 1013.1 0.0
04/04:30pm 29.7 26.2 10.3 30 11.1 SSE 19 26 10 14 1013.3 1012.9 0.0
04/04:00pm 29.9 27.1 11.4 32 10.7 SE 17 26 9 14 1013.4 1013.0 0.0
04/03:30pm 29.7 27.2 11.2 31 10.7 SE 15 22 8 12 1013.5 1013.1 0.0
04/03:00pm 29.4 26.5 11.0 32 10.6 SE 17 24 9 13 1013.6 1013.2 0.0
04/02:30pm 29.3 26.9 11.4 33 10.4 SE 15 22 8 12 1014.1 1013.6 0.0
04/02:00pm 29.1 25.7 11.2 33 10.3 SE 20 28 11 15 1014.5 1014.0 0.0
04/01:30pm 29.2 25.6 11.7 34 10.2 SE 22 30 12 16 1014.9 1014.4 0.0
04/01:00pm 28.4 24.7 11.5 35 9.8 SE 22 30 12 16 1015.6 1015.1 0.0
04/12:30pm 27.9 24.6 11.5 36 9.5 SE 20 26 11 14 1016.1 1015.6 0.0
04/12:00pm 27.3 24.0 11.7 37 9.0 SE 20 28 11 15 1016.5 1016.0 0.0
04/11:30am 26.9 22.5 11.8 39 8.7 SE 26 33 14 18 1016.9 1016.4 0.0
04/11:00am 25.6 21.8 13.5 47 7.1 SE 26 32 14 17 1017.3 1016.8 0.0
04/10:30am 25.2 21.6 14.3 50 6.5 SE 26 32 14 17 1017.7 1017.3 0.0
04/10:00am 23.9 19.9 14.0 54 5.8 SE 28 37 15 20 1017.7 1017.3 0.0
04/09:30am 22.9 20.4 16.2 66 4.1 SSE 24 32 13 17 1017.8 1017.4 0.0
04/09:00am 22.2 20.5 16.2 69 3.6 SSE 20 26 11 14 1017.8 1017.4 0.0
04/08:30am 22.1 20.5 16.4 70 3.5 SSE 20 26 11 14 1017.5 1017.1 0.0
04/08:00am 21.6 20.4 17.0 75 2.8 SE 19 22 10 12 1017.1 1016.6 0.0
04/07:30am 21.3 21.8 17.5 79 2.4 SE 11 17 6 9 1016.7 1016.2 0.0
04/07:00am 21.0 22.7 18.4 85 1.6 S 7 9 4 5 1016.6 1016.1 0.0
04/06:30am 20.9 22.6 18.5 86 1.5 S 7 9 4 5 1016.2 1015.7 0.0
04/06:00am 20.7 23.6 18.3 86 1.5 CALM 0 0 0 0 1015.7 1015.2 0.0
04/05:30am 20.8 23.8 18.4 86 1.5 CALM 0 0 0 0 1015.2 1014.7 0.0
04/05:00am 20.9 23.9 18.5 86 1.5 CALM 0 0 0 0 1015.0 1014.5 0.0
04/04:30am 20.9 23.9 18.5 86 1.5 CALM 0 0 0 0 1014.9 1014.4 0.0
04/04:00am 21.0 23.3 18.6 86 1.5 SE 4 6 2 3 1014.8 1014.3 0.0
04/03:30am 21.3 23.4 18.9 86 1.5 ESE 6 7 3 4 1014.8 1014.3 0.0
04/03:00am 21.4 22.5 18.8 85 1.6 SE 11 15 6 8 1014.7 1014.2 0.0
04/02:30am 21.6 22.4 19.0 85 1.6 SE 13 15 7 8 1014.8 1014.3 0.0
04/02:00am 22.8 22.9 18.3 76 2.8 SSE 15 22 8 12 1015.1 1014.6 0.0
04/01:30am 23.4 23.3 17.8 71 3.5 S 15 22 8 12 1015.1 1014.6 0.0
04/01:00am 23.7 23.5 17.7 69 3.8 S 15 22 8 12 1015.2 1014.7 0.0
04/12:30am 23.9 23.1 17.9 69 3.8 S 19 24 10 13 1015.3 1014.8 0.0
04/12:00am 24.1 24.5 18.1 69 3.8 S 13 17 7 9 1015.5 1015.0 0.0
 
Date/Time
EST
Temp
°C
App
Temp
°C
Dew
Point
Rel
Hum
%
Delta-T
°C
Wind Press
QNH
hPa
Press
MSL
hPa
Rain
since 9 am
mm
Dir
 
Spd
km/h
Gust
km/h
Spd
kts
Gust
kts
03/11:30pm 24.3 25.2 17.5 66 4.3 S 9 15 5 8 1015.5 1015.0 0.0
03/11:00pm 24.6 24.8 17.6 65 4.4 SSE 13 19 7 10 1015.5 1015.0 0.0
03/10:30pm 24.8 23.9 17.8 65 4.4 SSE 19 28 10 15 1015.6 1015.1 0.0
03/10:00pm 24.9 23.9 17.6 64 4.6 S 19 24 10 13 1015.7 1015.2 0.0
03/09:30pm 25.9 25.4 17.0 58 5.6 SSE 15 20 8 11 1015.7 1015.2 0.0
03/09:00pm 26.1 24.8 16.9 57 5.7 SSE 19 24 10 13 1015.5 1015.0 0.0
03/08:30pm 26.6 24.7 16.8 55 6.1 SSE 22 30 12 16 1015.4 1014.9 0.0
03/08:00pm 27.1 24.3 16.4 52 6.6 S 26 35 14 19 1015.1 1014.6 0.0
03/07:30pm 27.9 24.9 15.9 48 7.4 S 26 35 14 19 1014.5 1014.0 0.0
03/07:00pm 28.6 26.0 15.8 45 7.9 SSW 24 32 13 17 1014.1 1013.6 0.0
03/06:30pm 28.7 25.3 15.9 45 7.9 SSW 28 35 15 19 1013.6 1013.2 0.0
03/06:00pm 29.0 26.8 15.9 45 8.1 SSW 22 30 12 16 1013.4 1013.0 0.0
03/05:30pm 29.5 27.3 16.0 44 8.4 SSW 22 32 12 17 1013.1 1012.7 0.0
03/05:00pm 30.0 27.9 16.1 43 8.7 S 22 26 12 14 1012.6 1012.2 0.0
03/04:30pm 30.0 27.5 16.1 43 8.7 SSW 24 32 13 17 1012.0 1011.6 0.0
03/04:00pm 30.8 27.3 16.4 42 9.1 SSW 30 35 16 19 1012.0 1011.6 0.0
03/03:30pm 32.1 29.2 16.0 38 10.1 SSW 26 33 14 18 1012.0 1011.6 0.0
03/03:00pm 33.3 29.9 15.8 35 11.0 SSW 28 35 15 19 1012.0 1011.6 0.0
03/02:30pm 33.3 31.0 15.8 35 11.0 S 22 30 12 16 1012.1 1011.7 0.0
03/02:00pm 33.2 31.1 14.8 33 11.4 S 19 28 10 15 1012.4 1012.0 0.0
03/01:30pm 32.6 30.7 15.1 34 10.9 S 19 28 10 15 1012.9 1012.5 0.0
03/01:00pm 32.7 31.0 15.7 36 10.7 S 19 26 10 14 1013.3 1012.9 0.0
03/12:30pm 31.8 29.7 15.3 37 10.3 S 20 30 11 16 1014.0 1013.5 0.0
03/12:00pm 32.7 30.4 15.7 36 10.7 S 22 32 12 17 1014.1 1013.6 0.0
03/11:30am 32.5 31.7 15.1 35 10.8 SSE 13 22 7 12 1014.3 1013.8 0.0
03/11:00am 32.3 31.4 14.9 35 10.8 SE 13 20 7 11 1014.7 1014.2 0.0
03/10:30am 31.3 29.7 14.9 37 10.1 SE 17 24 9 13 1015.1 1014.6 0.0
03/10:00am 30.6 29.3 14.7 38 9.7 ESE 15 24 8 13 1015.0 1014.5 0.0
03/09:30am 29.6 28.5 15.3 41 8.8 SE 15 20 8 11 1015.3 1014.8 0.0
03/09:00am 27.8 26.2 15.1 46 7.7 ESE 17 20 9 11 1014.9 1014.4 0.0
03/08:30am 26.2 25.8 15.3 51 6.6 ESE 11 15 6 8 1014.7 1014.2 0.0
03/08:00am 24.8 24.9 15.4 56 5.7 ESE 9 13 5 7 1014.7 1014.2 0.0

Other Formats:

Comma delimited format used in spreadsheet applications
http://www.bom.gov.au/fwo/IDQ60801/IDQ60801.94337.axf

JavaScript Object Notation format (JSON) in row-major order
http://www.bom.gov.au/fwo/IDQ60801/IDQ60801.94337.json